Time;durP1;ratioP1;P1;durP2;ratioP2;P2;SDS_P1;SDS_P2;PMS_P1;PMS_P2;Temp;Humidity;BMP_temperature;BMP_pressure;BME280_temperature;BME280_humidity;BME280_pressure;Samples;Min_cycle;Max_cycle;Signal;HPM_P1;HPM_P2
2023/07/19 00:00:06;;;;;;;12.90;3.60;;;;;;;;;;4961793;28;20117;-83
2023/07/19 00:02:39;;;;;;;10.52;4.07;;;;;;;;;;5001230;28;20613;-85
2023/07/19 00:05:05;;;;;;;8.38;3.45;;;;;;;;;;4998989;28;20045;-85
2023/07/19 00:07:30;;;;;;;8.60;3.05;;;;;;;;;;5000893;28;20028;-86
2023/07/19 00:09:56;;;;;;;8.50;3.60;;;;;;;;;;5002238;28;20033;-84
2023/07/19 00:12:21;;;;;;;10.10;3.10;;;;;;;;;;5004747;28;20038;-84
2023/07/19 00:14:47;;;;;;;9.95;3.22;;;;;;;;;;4976699;28;20481;-85
2023/07/19 00:17:12;;;;;;;9.63;3.45;;;;;;;;;;4991068;28;20038;-84
2023/07/19 00:19:38;;;;;;;9.85;3.20;;;;;;;;;;5000109;28;20512;-83
2023/07/19 00:22:04;;;;;;;9.98;3.65;;;;;;;;;;4978049;28;20030;-84
2023/07/19 00:24:29;;;;;;;9.43;4.03;;;;;;;;;;4985799;28;20034;-86
2023/07/19 00:26:56;;;;;;;7.30;3.30;;;;;;;;;;4982868;28;20169;-85
2023/07/19 00:29:22;;;;;;;9.90;3.53;;;;;;;;;;5003545;28;20501;-84
2023/07/19 00:31:47;;;;;;;10.65;3.33;;;;;;;;;;4987455;28;20045;-83
2023/07/19 00:34:13;;;;;;;6.40;3.60;;;;;;;;;;5014085;28;20046;-84
2023/07/19 00:36:38;;;;;;;7.50;3.47;;;;;;;;;;5012558;28;20062;-84
2023/07/19 00:39:04;;;;;;;7.82;3.67;;;;;;;;;;5010531;28;20053;-85
2023/07/19 00:41:29;;;;;;;8.25;3.28;;;;;;;;;;4992308;28;20048;-85
2023/07/19 00:43:57;;;;;;;8.65;3.45;;;;;;;;;;4991526;28;20120;-87
2023/07/19 00:46:23;;;;;;;9.38;3.72;;;;;;;;;;4999066;28;20085;-85
2023/07/19 00:48:49;;;;;;;6.30;3.25;;;;;;;;;;5004726;28;20413;-84
2023/07/19 00:51:15;;;;;;;5.82;3.35;;;;;;;;;;4999662;28;20034;-83
2023/07/19 00:53:44;;;;;;;11.52;3.70;;;;;;;;;;4999945;28;20080;-84
2023/07/19 00:56:10;;;;;;;7.70;3.22;;;;;;;;;;5008873;28;20048;-85
2023/07/19 00:58:36;;;;;;;10.38;3.30;;;;;;;;;;4998950;28;20034;-86
2023/07/19 01:01:02;;;;;;;10.15;3.22;;;;;;;;;;5000874;28;20404;-85
2023/07/19 01:03:27;;;;;;;7.15;3.25;;;;;;;;;;4975479;28;20038;-86
2023/07/19 01:05:55;;;;;;;13.55;3.47;;;;;;;;;;5006509;28;20049;-85
2023/07/19 01:08:20;;;;;;;12.05;3.35;;;;;;;;;;4991200;28;20148;-85
2023/07/19 01:10:46;;;;;;;10.27;3.47;;;;;;;;;;5000165;28;20497;-84
2023/07/19 01:13:12;;;;;;;9.30;3.17;;;;;;;;;;4990850;28;20062;-85
2023/07/19 01:15:40;;;;;;;10.13;3.40;;;;;;;;;;4998321;28;20509;-85
2023/07/19 01:18:06;;;;;;;8.50;3.00;;;;;;;;;;5005199;28;20030;-84
2023/07/19 01:20:31;;;;;;;7.85;3.30;;;;;;;;;;4998067;28;20038;-86
2023/07/19 01:22:57;;;;;;;14.00;3.58;;;;;;;;;;5009031;28;20091;-83
2023/07/19 01:25:24;;;;;;;9.63;3.45;;;;;;;;;;4991086;28;20505;-85
2023/07/19 01:27:50;;;;;;;11.70;3.97;;;;;;;;;;5000543;28;20036;-86
2023/07/19 01:30:16;;;;;;;12.00;3.90;;;;;;;;;;5007051;28;20033;-84
2023/07/19 01:32:43;;;;;;;11.00;3.67;;;;;;;;;;4984766;28;20071;-84
2023/07/19 01:35:08;;;;;;;8.55;3.38;;;;;;;;;;4999821;28;20037;-86
2023/07/19 01:37:35;;;;;;;9.23;3.55;;;;;;;;;;5000874;28;20041;-86
2023/07/19 01:40:04;;;;;;;9.80;3.90;;;;;;;;;;4999227;28;20038;-87
2023/07/19 01:42:31;;;;;;;9.88;3.47;;;;;;;;;;5007560;28;20386;-84
2023/07/19 01:45:01;;;;;;;8.93;3.30;;;;;;;;;;4992761;28;20044;-84
2023/07/19 01:47:27;;;;;;;12.32;3.65;;;;;;;;;;4969306;28;20061;-85
2023/07/19 01:49:52;;;;;;;10.93;3.58;;;;;;;;;;5003786;28;20054;-84
2023/07/19 01:52:18;;;;;;;9.77;3.50;;;;;;;;;;5005512;28;20030;-86
2023/07/19 01:54:43;;;;;;;11.50;3.70;;;;;;;;;;4974919;28;20042;-84
2023/07/19 01:57:10;;;;;;;16.77;3.67;;;;;;;;;;4990684;28;20424;-85
2023/07/19 01:59:36;;;;;;;7.20;3.38;;;;;;;;;;4988710;28;20030;-85
2023/07/19 02:02:01;;;;;;;11.80;3.53;;;;;;;;;;4995492;28;20133;-85
2023/07/19 02:04:27;;;;;;;13.02;3.60;;;;;;;;;;4997311;28;20030;-82
2023/07/19 02:06:53;;;;;;;14.75;3.55;;;;;;;;;;4997069;28;20040;-84
2023/07/19 02:09:19;;;;;;;9.73;3.60;;;;;;;;;;4998733;28;20080;-86
2023/07/19 02:11:45;;;;;;;10.32;4.10;;;;;;;;;;4998503;28;20038;-83
2023/07/19 02:14:10;;;;;;;11.55;3.90;;;;;;;;;;4989210;28;20073;-83
2023/07/19 02:16:37;;;;;;;11.07;3.67;;;;;;;;;;5003072;28;20041;-85
2023/07/19 02:19:05;;;;;;;8.32;3.83;;;;;;;;;;4984158;28;20042;-85
2023/07/19 02:21:30;;;;;;;9.77;3.80;;;;;;;;;;5002532;28;20112;-83
2023/07/19 02:23:57;;;;;;;8.38;3.50;;;;;;;;;;4999118;28;20494;-84
2023/07/19 02:26:23;;;;;;;13.10;3.88;;;;;;;;;;4982497;28;20101;-87
2023/07/19 02:28:48;;;;;;;10.45;3.53;;;;;;;;;;5035616;23;20069;-84
2023/07/19 02:31:14;;;;;;;11.00;3.70;;;;;;;;;;4993215;28;20038;-83
2023/07/19 02:33:39;;;;;;;9.68;3.55;;;;;;;;;;5008319;28;20080;-84
2023/07/19 02:36:08;;;;;;;16.90;4.40;;;;;;;;;;5002702;28;20044;-84
2023/07/19 02:38:34;;;;;;;10.80;4.55;;;;;;;;;;4999016;28;20080;-85
2023/07/19 02:41:00;;;;;;;11.88;4.80;;;;;;;;;;4984373;28;20053;-84
2023/07/19 02:43:27;;;;;;;13.23;4.43;;;;;;;;;;4968873;28;20057;-84
2023/07/19 04:06:34;;;;;;;10.43;3.58;;;;;;;;;;5148427;27;20128;-84
2023/07/19 04:09:00;;;;;;;10.65;3.72;;;;;;;;;;5140565;27;20042;-82
2023/07/19 04:11:27;;;;;;;11.63;3.67;;;;;;;;;;5117577;28;20028;-83
2023/07/19 04:13:54;;;;;;;10.06;3.40;;;;;;;;;;5074067;28;1274496;-83
2023/07/19 04:16:21;;;;;;;9.07;3.58;;;;;;;;;;4964181;28;20286;-86
2023/07/19 04:18:46;;;;;;;11.68;3.78;;;;;;;;;;4993147;28;20042;-86
2023/07/19 04:21:12;;;;;;;12.48;3.50;;;;;;;;;;4986299;28;20463;-84
2023/07/19 04:23:38;;;;;;;9.65;3.20;;;;;;;;;;4985746;28;20038;-85
2023/07/19 04:26:07;;;;;;;12.63;3.67;;;;;;;;;;4977602;28;20057;-85
2023/07/19 04:28:34;;;;;;;11.70;3.95;;;;;;;;;;4965845;28;20070;-85
2023/07/19 04:31:00;;;;;;;8.60;3.25;;;;;;;;;;4996349;23;20039;-85
2023/07/19 04:33:25;;;;;;;15.63;3.70;;;;;;;;;;4988555;28;20070;-83
2023/07/19 04:35:51;;;;;;;13.13;3.42;;;;;;;;;;4967087;28;20512;-84
2023/07/19 04:38:17;;;;;;;9.63;3.60;;;;;;;;;;4967569;28;20453;-84
2023/07/19 04:40:42;;;;;;;10.00;3.63;;;;;;;;;;4978635;28;20127;-84
2023/07/19 04:43:10;;;;;;;7.97;2.90;;;;;;;;;;4950091;28;20035;-84
2023/07/19 04:45:36;;;;;;;10.32;3.20;;;;;;;;;;4978661;28;20039;-84
2023/07/19 04:48:04;;;;;;;13.70;3.95;;;;;;;;;;4964307;28;20466;-83
2023/07/19 04:50:30;;;;;;;9.23;3.05;;;;;;;;;;4967879;28;20042;-85
2023/07/19 04:52:55;;;;;;;13.35;3.45;;;;;;;;;;4946548;29;20036;-83
2023/07/19 04:55:21;;;;;;;10.57;3.20;;;;;;;;;;4939609;28;20039;-84
2023/07/19 04:57:48;;;;;;;12.23;3.50;;;;;;;;;;4978036;28;20054;-84
2023/07/19 05:00:14;;;;;;;13.52;3.60;;;;;;;;;;4973835;28;20256;-83
2023/07/19 05:02:41;;;;;;;13.40;3.75;;;;;;;;;;4985819;28;20043;-84
2023/07/19 05:05:08;;;;;;;12.75;3.50;;;;;;;;;;4968266;28;20094;-84
2023/07/19 05:07:37;;;;;;;8.90;3.30;;;;;;;;;;4937274;29;20046;-86
2023/07/19 05:10:04;;;;;;;12.75;3.22;;;;;;;;;;4943940;29;20040;-83
2023/07/19 05:12:31;;;;;;;14.13;3.53;;;;;;;;;;4959068;28;20388;-84
2023/07/19 05:14:56;;;;;;;11.35;3.22;;;;;;;;;;4925309;29;20084;-85
2023/07/19 05:17:22;;;;;;;13.05;3.15;;;;;;;;;;4928324;29;20044;-84
2023/07/19 05:19:48;;;;;;;12.80;3.40;;;;;;;;;;4941219;29;20044;-84
2023/07/19 05:22:14;;;;;;;9.52;2.80;;;;;;;;;;4948417;28;20423;-84
2023/07/19 05:24:40;;;;;;;12.35;3.15;;;;;;;;;;4939732;29;20484;-86
2023/07/19 05:27:05;;;;;;;12.32;3.17;;;;;;;;;;4924746;29;20075;-86
2023/07/19 05:29:31;;;;;;;10.02;2.95;;;;;;;;;;4926171;29;20099;-84
2023/07/19 05:31:57;;;;;;;9.25;3.03;;;;;;;;;;4922922;29;20080;-85
2023/07/19 05:34:23;;;;;;;8.07;2.88;;;;;;;;;;4923064;29;20068;-85
2023/07/19 05:36:48;;;;;;;11.48;3.05;;;;;;;;;;4928437;28;20036;-86
2023/07/19 05:39:14;;;;;;;8.50;3.17;;;;;;;;;;4929137;29;20399;-85
2023/07/19 05:41:39;;;;;;;9.65;2.83;;;;;;;;;;4926603;29;20044;-83
2023/07/19 05:44:05;;;;;;;9.20;2.88;;;;;;;;;;4921422;29;20036;-85
2023/07/19 05:46:34;;;;;;;9.00;3.08;;;;;;;;;;4922420;29;20063;-83
2023/07/19 05:49:00;;;;;;;9.13;2.70;;;;;;;;;;4937083;29;20040;-84
2023/07/19 05:51:25;;;;;;;7.93;2.85;;;;;;;;;;4923258;29;20394;-85
2023/07/19 05:53:51;;;;;;;6.05;2.60;;;;;;;;;;4922113;29;20039;-85
2023/07/19 05:56:16;;;;;;;6.78;3.03;;;;;;;;;;4923664;29;20549;-86
2023/07/19 05:58:42;;;;;;;9.45;3.03;;;;;;;;;;4923507;29;20087;-85
2023/07/19 06:01:09;;;;;;;7.72;2.85;;;;;;;;;;4922885;29;20087;-86
2023/07/19 06:03:36;;;;;;;6.90;2.80;;;;;;;;;;4924654;29;20043;-85
2023/07/19 06:06:05;;;;;;;8.43;3.08;;;;;;;;;;4924921;29;20152;-85
2023/07/19 06:08:32;;;;;;;8.27;2.95;;;;;;;;;;4923306;29;20055;-86
2023/07/19 06:10:58;;;;;;;8.13;3.03;;;;;;;;;;4921886;29;20046;-85
2023/07/19 06:13:23;;;;;;;6.60;2.63;;;;;;;;;;4921174;29;20036;-86
2023/07/19 06:15:49;;;;;;;6.68;2.60;;;;;;;;;;4930157;28;20042;-86
2023/07/19 06:18:15;;;;;;;9.20;2.83;;;;;;;;;;4972036;28;20048;-87
2023/07/19 06:20:41;;;;;;;8.15;2.97;;;;;;;;;;4973189;28;20441;-84
2023/07/19 06:23:06;;;;;;;6.35;2.65;;;;;;;;;;4973900;28;20121;-85
2023/07/19 06:25:32;;;;;;;5.88;2.67;;;;;;;;;;4973708;28;20501;-86
2023/07/19 06:27:57;;;;;;;8.93;2.80;;;;;;;;;;4974549;28;20114;-86
2023/07/19 06:30:23;;;;;;;11.35;3.53;;;;;;;;;;4974756;28;20036;-85
2023/07/19 06:32:48;;;;;;;10.75;3.20;;;;;;;;;;4976623;28;20042;-86
2023/07/19 06:35:14;;;;;;;11.13;3.30;;;;;;;;;;4977767;28;20038;-86
2023/07/19 06:37:39;;;;;;;8.13;3.03;;;;;;;;;;4976388;28;20050;-85
2023/07/19 06:40:06;;;;;;;9.07;3.20;;;;;;;;;;4975631;28;20110;-85
2023/07/19 06:42:32;;;;;;;8.65;2.95;;;;;;;;;;4975360;28;20049;-86
2023/07/19 06:44:58;;;;;;;11.68;3.22;;;;;;;;;;4973522;28;20029;-86
2023/07/19 06:47:24;;;;;;;10.98;3.90;;;;;;;;;;4987100;28;20049;-86
2023/07/19 06:49:49;;;;;;;14.18;4.85;;;;;;;;;;4970527;28;20035;-86
2023/07/19 06:52:15;;;;;;;10.93;4.20;;;;;;;;;;4962408;28;20038;-86
2023/07/19 06:54:40;;;;;;;10.00;3.75;;;;;;;;;;4963287;28;20039;-86
2023/07/19 06:57:06;;;;;;;14.13;4.25;;;;;;;;;;4965732;28;20490;-84
2023/07/19 06:59:31;;;;;;;8.60;4.00;;;;;;;;;;4965453;28;20035;-84
2023/07/19 07:02:00;;;;;;;11.10;3.38;;;;;;;;;;4967457;28;20043;-84
2023/07/19 07:04:25;;;;;;;9.30;3.92;;;;;;;;;;4966569;28;20058;-84
2023/07/19 07:06:51;;;;;;;11.95;3.53;;;;;;;;;;4965922;28;20034;-85
2023/07/19 07:09:16;;;;;;;11.50;3.72;;;;;;;;;;4965584;28;20480;-86
2023/07/19 07:11:42;;;;;;;9.98;3.38;;;;;;;;;;4967293;28;20046;-86
2023/07/19 07:14:08;;;;;;;7.57;3.05;;;;;;;;;;4969529;28;20042;-85
2023/07/19 07:16:34;;;;;;;8.98;3.00;;;;;;;;;;4960773;28;20059;-85
2023/07/19 07:19:00;;;;;;;8.38;3.05;;;;;;;;;;4942937;29;20043;-85
2023/07/19 07:21:26;;;;;;;7.95;3.40;;;;;;;;;;4952137;29;20090;-85
2023/07/19 07:23:51;;;;;;;6.88;3.10;;;;;;;;;;4955136;29;20047;-85
2023/07/19 07:26:17;;;;;;;7.38;2.80;;;;;;;;;;4955291;29;20121;-86
2023/07/19 07:28:42;;;;;;;10.10;3.78;;;;;;;;;;4939517;28;20417;-86
2023/07/19 07:31:09;;;;;;;9.18;3.95;;;;;;;;;;4955478;29;20085;-87
2023/07/19 07:33:35;;;;;;;8.27;3.90;;;;;;;;;;4951168;29;20063;-86
2023/07/19 07:36:01;;;;;;;12.05;4.00;;;;;;;;;;4942037;29;20584;-83
2023/07/19 07:38:27;;;;;;;8.13;3.95;;;;;;;;;;4951654;29;20700;-84
2023/07/19 07:40:59;;;;;;;12.45;3.95;;;;;;;;;;4949134;29;20050;-85
2023/07/19 07:43:24;;;;;;;7.88;3.88;;;;;;;;;;4949252;29;20041;-84
2023/07/19 07:45:50;;;;;;;7.53;4.22;;;;;;;;;;4948227;29;20023;-85
2023/07/19 07:48:15;;;;;;;7.80;4.45;;;;;;;;;;4945830;29;20047;-85
2023/07/19 07:50:41;;;;;;;11.27;4.03;;;;;;;;;;4943401;29;20039;-84
2023/07/19 07:53:06;;;;;;;9.65;4.47;;;;;;;;;;4944493;29;20071;-85
2023/07/19 07:55:34;;;;;;;10.57;4.25;;;;;;;;;;4946223;29;20035;-85
2023/07/19 07:58:00;;;;;;;9.80;4.22;;;;;;;;;;4952627;29;20053;-85
2023/07/19 08:00:25;;;;;;;7.63;3.53;;;;;;;;;;4947768;29;20066;-86
2023/07/19 08:02:51;;;;;;;8.57;4.30;;;;;;;;;;4948865;29;20153;-84
2023/07/19 08:05:16;;;;;;;9.93;3.72;;;;;;;;;;4948095;29;20043;-84
2023/07/19 08:07:42;;;;;;;6.78;3.47;;;;;;;;;;4949276;29;20039;-85
2023/07/19 08:10:08;;;;;;;8.20;3.42;;;;;;;;;;4950372;29;20044;-84
2023/07/19 08:12:33;;;;;;;8.00;3.55;;;;;;;;;;4951645;29;20043;-85
2023/07/19 08:14:59;;;;;;;8.25;3.53;;;;;;;;;;4953649;28;20047;-85
2023/07/19 08:17:26;;;;;;;9.63;3.40;;;;;;;;;;4963269;28;20049;-86
2023/07/19 08:19:51;;;;;;;11.07;4.20;;;;;;;;;;4974488;28;20054;-85
2023/07/19 08:22:27;;;;;;;13.90;3.50;;;;;;;;;;4973954;28;20568;-85
2023/07/19 08:24:53;;;;;;;8.13;3.55;;;;;;;;;;4973499;28;20182;-86
2023/07/19 08:27:19;;;;;;;9.85;3.95;;;;;;;;;;4972528;28;20075;-86
2023/07/19 08:29:44;;;;;;;9.98;3.67;;;;;;;;;;4971952;28;20038;-85
2023/07/19 08:32:09;;;;;;;8.75;3.22;;;;;;;;;;4968850;28;20047;-86
2023/07/19 08:34:35;;;;;;;10.23;3.22;;;;;;;;;;4960475;28;20091;-85
2023/07/19 08:37:00;;;;;;;8.35;3.38;;;;;;;;;;4964676;28;20066;-87
2023/07/19 08:39:27;;;;;;;9.52;3.67;;;;;;;;;;4968860;28;20549;-85
2023/07/19 08:41:53;;;;;;;11.40;3.30;;;;;;;;;;4970814;28;20039;-85
2023/07/19 08:44:22;;;;;;;10.15;3.40;;;;;;;;;;4971985;28;20646;-86
2023/07/19 08:46:49;;;;;;;9.18;3.53;;;;;;;;;;4970024;28;20043;-87
2023/07/19 08:49:18;;;;;;;8.85;3.30;;;;;;;;;;4953013;28;20027;-86
2023/07/19 08:51:45;;;;;;;11.10;3.78;;;;;;;;;;4959976;28;20099;-86
2023/07/19 08:54:11;;;;;;;9.70;3.30;;;;;;;;;;4972833;28;20043;-86
2023/07/19 08:56:38;;;;;;;9.13;3.42;;;;;;;;;;4970474;28;20039;-86
2023/07/19 08:59:05;;;;;;;8.45;3.30;;;;;;;;;;4965055;28;20043;-86
2023/07/19 09:01:31;;;;;;;6.97;3.55;;;;;;;;;;4966812;28;20664;-85
2023/07/19 09:03:57;;;;;;;10.40;3.42;;;;;;;;;;4975233;28;20085;-86
2023/07/19 09:06:28;;;;;;;10.20;3.67;;;;;;;;;;4975477;28;20110;-87
2023/07/19 09:08:55;;;;;;;8.82;3.30;;;;;;;;;;4976977;28;20039;-87
2023/07/19 09:11:24;;;;;;;8.13;3.20;;;;;;;;;;4978003;28;20501;-86
2023/07/19 09:13:58;;;;;;;7.93;3.42;;;;;;;;;;4979020;28;20073;-85
2023/07/19 09:16:32;;;;;;;7.68;3.45;;;;;;;;;;4967216;28;20043;-87
2023/07/19 09:18:59;;;;;;;9.95;3.95;;;;;;;;;;4978070;28;20038;-85
2023/07/19 09:21:31;;;;;;;6.57;3.58;;;;;;;;;;4991851;28;20178;-86
2023/07/19 09:23:57;;;;;;;7.47;3.60;;;;;;;;;;4975597;28;20069;-86
2023/07/19 09:26:22;;;;;;;9.52;4.13;;;;;;;;;;4973634;28;20484;-86
2023/07/19 09:28:51;;;;;;;8.13;3.63;;;;;;;;;;4975222;28;20039;-86
2023/07/19 09:31:16;;;;;;;9.10;3.72;;;;;;;;;;4977210;28;20556;-87
2023/07/19 09:33:42;;;;;;;8.02;3.80;;;;;;;;;;4966732;28;20042;-86
2023/07/19 09:36:07;;;;;;;10.02;3.70;;;;;;;;;;4968350;28;20058;-86
2023/07/19 09:38:33;;;;;;;9.05;3.67;;;;;;;;;;4971241;28;20413;-86
2023/07/19 09:40:59;;;;;;;7.15;3.80;;;;;;;;;;4970112;28;20045;-86
2023/07/19 09:43:24;;;;;;;8.02;3.67;;;;;;;;;;4971621;28;20034;-87
2023/07/19 09:45:51;;;;;;;11.13;4.00;;;;;;;;;;4969289;28;20090;-87
2023/07/19 09:48:18;;;;;;;7.32;3.88;;;;;;;;;;4974867;28;20039;-87
2023/07/19 09:50:47;;;;;;;6.70;3.75;;;;;;;;;;4973047;28;20031;-87
2023/07/19 09:53:13;;;;;;;6.88;3.70;;;;;;;;;;4974201;28;20042;-87
2023/07/19 09:55:39;;;;;;;7.57;3.90;;;;;;;;;;4988022;28;20062;-86
2023/07/19 09:58:09;;;;;;;8.63;4.05;;;;;;;;;;4976103;28;20046;-88
2023/07/19 10:00:36;;;;;;;9.48;4.07;;;;;;;;;;4968063;28;20141;-87
2023/07/19 10:03:02;;;;;;;9.68;4.22;;;;;;;;;;4991736;28;20031;-87
2023/07/19 10:05:28;;;;;;;14.63;4.13;;;;;;;;;;4977658;28;20042;-86
2023/07/19 10:08:03;;;;;;;9.85;3.67;;;;;;;;;;4979044;28;20034;-86
2023/07/19 10:10:41;;;;;;;8.52;4.20;;;;;;;;;;4977257;28;20043;-87
2023/07/19 10:13:08;;;;;;;9.90;3.95;;;;;;;;;;4989227;28;20093;-87
2023/07/19 10:15:35;;;;;;;8.70;3.80;;;;;;;;;;4969366;28;20046;-87
2023/07/19 10:18:01;;;;;;;8.75;4.03;;;;;;;;;;4968909;28;20043;-86
2023/07/19 10:20:34;;;;;;;7.03;4.18;;;;;;;;;;4973849;28;20047;-86
2023/07/19 10:23:05;;;;;;;7.13;3.80;;;;;;;;;;4972562;28;20125;-87
2023/07/19 10:25:44;;;;;;;8.20;3.78;;;;;;;;;;4972292;28;20046;-86
2023/07/19 10:28:11;;;;;;;6.65;3.65;;;;;;;;;;4968830;28;20043;-89
2023/07/19 10:30:43;;;;;;;9.55;4.10;;;;;;;;;;4950212;28;20040;-87
2023/07/19 10:33:09;;;;;;;9.90;3.90;;;;;;;;;;4959451;28;20039;-86
2023/07/19 10:35:35;;;;;;;7.30;4.00;;;;;;;;;;4969304;28;20033;-87
2023/07/19 10:38:00;;;;;;;8.52;3.75;;;;;;;;;;4968402;28;20038;-86
2023/07/19 10:40:26;;;;;;;7.97;3.70;;;;;;;;;;4965492;28;20091;-87
2023/07/19 10:42:51;;;;;;;7.60;3.80;;;;;;;;;;4966022;28;20043;-86
2023/07/19 10:45:17;;;;;;;7.68;3.80;;;;;;;;;;4970540;28;20513;-86
2023/07/19 10:47:43;;;;;;;8.07;3.72;;;;;;;;;;4987793;28;20031;-86
2023/07/19 10:50:09;;;;;;;7.60;4.13;;;;;;;;;;4971976;28;20042;-87
2023/07/19 10:52:34;;;;;;;7.30;3.85;;;;;;;;;;4973875;28;20061;-86
2023/07/19 10:55:00;;;;;;;7.88;4.03;;;;;;;;;;4992339;28;20098;-86
2023/07/19 10:57:27;;;;;;;6.55;3.85;;;;;;;;;;4976426;28;20054;-87
2023/07/19 10:59:53;;;;;;;6.47;3.72;;;;;;;;;;4975932;28;20046;-86
2023/07/19 11:02:19;;;;;;;9.18;4.10;;;;;;;;;;4981480;28;20041;-86
2023/07/19 11:04:46;;;;;;;7.60;4.28;;;;;;;;;;4981435;28;20043;-87
2023/07/19 11:07:12;;;;;;;6.90;3.83;;;;;;;;;;4980025;28;20053;-87
2023/07/19 11:09:41;;;;;;;8.38;4.05;;;;;;;;;;4980650;28;20043;-87
2023/07/19 11:12:09;;;;;;;7.22;4.50;;;;;;;;;;4961342;28;20121;-87
2023/07/19 11:14:41;;;;;;;7.88;4.18;;;;;;;;;;4972180;28;20062;-86
2023/07/19 11:17:07;;;;;;;8.07;3.95;;;;;;;;;;4968225;28;20511;-87
2023/07/19 11:19:38;;;;;;;9.07;4.22;;;;;;;;;;4981062;28;20050;-87
2023/07/19 11:22:05;;;;;;;8.85;4.30;;;;;;;;;;4974452;28;20047;-87
2023/07/19 11:24:38;;;;;;;6.80;4.40;;;;;;;;;;4973459;28;20493;-87
2023/07/19 11:27:04;;;;;;;7.40;4.22;;;;;;;;;;4971782;28;20043;-87
2023/07/19 11:29:31;;;;;;;9.07;4.50;;;;;;;;;;4972673;28;20043;-86
2023/07/19 11:32:20;;;;;;;9.10;4.50;;;;;;;;;;4974524;28;20094;-87
2023/07/19 11:34:54;;;;;;;7.38;4.07;;;;;;;;;;4990638;28;20046;-87
2023/07/19 11:37:40;;;;;;;6.40;4.05;;;;;;;;;;4990530;28;20085;-87
2023/07/19 11:40:06;;;;;;;8.10;4.00;;;;;;;;;;4979815;28;20108;-87
2023/07/19 11:43:04;;;;;;;7.22;4.20;;;;;;;;;;4971863;28;20030;-87
2023/07/19 11:45:31;;;;;;;7.70;4.20;;;;;;;;;;4930979;28;20082;-87
2023/07/19 11:48:01;;;;;;;8.32;4.32;;;;;;;;;;4962640;28;20042;-87
2023/07/19 11:50:27;;;;;;;8.40;4.10;;;;;;;;;;4977795;28;20035;-86
2023/07/19 11:53:00;;;;;;;5.93;4.20;;;;;;;;;;4980800;28;20500;-87
2023/07/19 11:55:26;;;;;;;8.40;4.57;;;;;;;;;;4981577;28;20058;-86
2023/07/19 11:57:53;;;;;;;7.55;4.20;;;;;;;;;;4978289;28;20035;-87
2023/07/19 12:00:20;;;;;;;6.57;4.10;;;;;;;;;;4978656;28;20031;-87
2023/07/19 12:02:48;;;;;;;7.13;4.38;;;;;;;;;;4979176;28;20402;-87
2023/07/19 12:05:15;;;;;;;9.02;4.35;;;;;;;;;;4978563;28;20139;-87
2023/07/19 12:07:41;;;;;;;8.25;4.20;;;;;;;;;;4971174;28;20126;-87
2023/07/19 12:10:07;;;;;;;8.93;4.38;;;;;;;;;;4964362;28;20062;-87
2023/07/19 12:12:33;;;;;;;6.20;4.10;;;;;;;;;;4970580;28;20054;-87
2023/07/19 12:15:05;;;;;;;7.10;4.25;;;;;;;;;;4968753;28;20043;-86
2023/07/19 12:17:33;;;;;;;9.13;4.37;;;;;;;;;;4972045;28;20121;-86
2023/07/19 12:19:59;;;;;;;6.22;4.25;;;;;;;;;;4975325;28;20034;-86
2023/07/19 12:22:28;;;;;;;7.68;4.20;;;;;;;;;;4975658;28;20059;-87
2023/07/19 12:24:54;;;;;;;6.15;4.22;;;;;;;;;;4982272;28;20042;-85
2023/07/19 12:27:19;;;;;;;6.28;4.38;;;;;;;;;;4973491;28;20039;-86
2023/07/19 12:29:45;;;;;;;6.75;4.40;;;;;;;;;;4975073;28;20030;-86
2023/07/19 12:32:10;;;;;;;7.63;4.30;;;;;;;;;;4992288;28;20413;-86
2023/07/19 12:34:36;;;;;;;7.63;4.20;;;;;;;;;;4979006;28;20070;-86
2023/07/19 12:37:01;;;;;;;7.53;4.30;;;;;;;;;;4979311;28;20493;-87
2023/07/19 12:39:27;;;;;;;6.28;4.68;;;;;;;;;;4971361;28;20049;-86
2023/07/19 12:41:52;;;;;;;7.38;4.28;;;;;;;;;;4972599;28;20027;-87
2023/07/19 12:44:21;;;;;;;9.52;4.10;;;;;;;;;;4983183;28;20031;-86
2023/07/19 12:46:50;;;;;;;5.45;4.20;;;;;;;;;;4981939;28;20508;-86
2023/07/19 12:49:21;;;;;;;7.82;4.22;;;;;;;;;;4983115;28;20035;-86
2023/07/19 12:51:48;;;;;;;11.50;4.35;;;;;;;;;;4981629;28;20073;-87
2023/07/19 12:54:14;;;;;;;6.95;4.20;;;;;;;;;;4983081;28;20105;-87
2023/07/19 12:56:40;;;;;;;6.65;4.25;;;;;;;;;;4972989;28;20050;-87
2023/07/19 12:59:06;;;;;;;8.45;4.03;;;;;;;;;;4978380;28;20046;-87
2023/07/19 13:01:37;;;;;;;6.80;4.28;;;;;;;;;;4980613;28;20413;-87
2023/07/19 13:04:07;;;;;;;5.80;4.20;;;;;;;;;;4977945;28;20560;-86
2023/07/19 13:06:33;;;;;;;11.02;5.07;;;;;;;;;;4978175;28;20032;-86
2023/07/19 13:08:59;;;;;;;8.95;4.50;;;;;;;;;;4977039;28;20035;-86
2023/07/19 13:11:25;;;;;;;7.45;4.70;;;;;;;;;;4973808;28;20039;-86
2023/07/19 13:13:51;;;;;;;6.13;4.60;;;;;;;;;;4973848;28;20113;-86
2023/07/19 13:16:17;;;;;;;10.10;4.70;;;;;;;;;;4973434;28;20039;-86
2023/07/19 13:18:44;;;;;;;7.35;4.40;;;;;;;;;;4973452;28;20066;-86
2023/07/19 13:21:11;;;;;;;5.97;4.22;;;;;;;;;;4971743;28;20035;-86
2023/07/19 13:23:36;;;;;;;9.27;4.75;;;;;;;;;;4977261;28;20045;-86
2023/07/19 13:26:02;;;;;;;7.10;4.53;;;;;;;;;;4977547;28;20106;-86
2023/07/19 13:28:28;;;;;;;6.78;4.82;;;;;;;;;;4979470;28;20038;-86
2023/07/19 13:30:54;;;;;;;7.60;4.55;;;;;;;;;;4980811;28;20031;-86
2023/07/19 13:33:20;;;;;;;8.85;4.60;;;;;;;;;;4981081;28;20045;-86
2023/07/19 13:35:45;;;;;;;8.50;4.78;;;;;;;;;;4981944;28;20041;-86
2023/07/19 13:38:11;;;;;;;8.07;4.53;;;;;;;;;;4981703;28;20030;-86
2023/07/19 13:40:36;;;;;;;8.05;4.70;;;;;;;;;;4972256;28;20118;-86
2023/07/19 13:43:02;;;;;;;9.68;4.70;;;;;;;;;;4983937;28;20046;-86
2023/07/19 13:45:28;;;;;;;6.03;4.25;;;;;;;;;;4966227;28;20054;-86
2023/07/19 13:47:53;;;;;;;11.40;4.75;;;;;;;;;;4981345;28;20038;-86
2023/07/19 13:50:19;;;;;;;7.07;4.57;;;;;;;;;;4981308;28;20071;-86
2023/07/19 13:52:44;;;;;;;7.90;4.28;;;;;;;;;;4995571;28;20038;-86
2023/07/19 13:55:10;;;;;;;10.38;4.53;;;;;;;;;;4973119;28;20071;-86
2023/07/19 13:57:36;;;;;;;10.52;5.00;;;;;;;;;;4969152;28;20045;-86
2023/07/19 14:00:01;;;;;;;7.47;4.80;;;;;;;;;;4956413;28;20031;-86
2023/07/19 14:02:29;;;;;;;8.15;4.65;;;;;;;;;;4977612;28;20105;-86
2023/07/19 14:04:55;;;;;;;8.07;4.95;;;;;;;;;;4975748;28;20038;-86
2023/07/19 14:07:21;;;;;;;6.82;4.68;;;;;;;;;;4975938;28;20039;-86
2023/07/19 14:09:47;;;;;;;8.30;5.18;;;;;;;;;;4973148;28;20107;-86
2023/07/19 14:12:14;;;;;;;8.93;5.03;;;;;;;;;;4975361;28;20062;-86
2023/07/19 14:14:40;;;;;;;8.15;4.85;;;;;;;;;;4976233;28;20089;-86
2023/07/19 14:17:06;;;;;;;9.55;5.03;;;;;;;;;;4980359;28;20049;-86
2023/07/19 14:19:31;;;;;;;9.30;4.85;;;;;;;;;;4990590;28;20043;-86
2023/07/19 14:21:57;;;;;;;6.88;4.88;;;;;;;;;;4971156;28;20038;-86
2023/07/19 14:24:22;;;;;;;7.82;5.40;;;;;;;;;;4979864;28;20429;-85
2023/07/19 14:26:48;;;;;;;8.00;4.95;;;;;;;;;;4980530;28;20039;-86
2023/07/19 14:29:14;;;;;;;6.43;4.90;;;;;;;;;;4981676;28;20122;-86
2023/07/19 14:31:40;;;;;;;8.02;4.80;;;;;;;;;;4982966;28;20050;-86
2023/07/19 14:34:05;;;;;;;7.05;4.50;;;;;;;;;;4984502;28;20094;-86
2023/07/19 14:36:31;;;;;;;7.55;4.50;;;;;;;;;;4983193;28;20386;-86
2023/07/19 14:38:56;;;;;;;10.75;4.63;;;;;;;;;;4976312;28;20606;-86
2023/07/19 14:41:23;;;;;;;10.13;5.13;;;;;;;;;;4982814;28;20073;-86
2023/07/19 14:43:48;;;;;;;9.30;4.80;;;;;;;;;;4980445;28;20066;-86
2023/07/19 14:46:14;;;;;;;9.45;4.95;;;;;;;;;;4980769;28;20047;-86
2023/07/19 14:48:40;;;;;;;7.25;4.65;;;;;;;;;;4980980;28;20031;-86
2023/07/19 14:51:05;;;;;;;9.88;4.95;;;;;;;;;;4979586;28;20042;-86
2023/07/19 14:53:31;;;;;;;6.50;4.60;;;;;;;;;;4975400;28;20047;-86
2023/07/19 14:55:57;;;;;;;9.02;4.90;;;;;;;;;;4985237;28;20035;-86
2023/07/19 14:58:22;;;;;;;7.90;4.88;;;;;;;;;;4986462;28;20041;-86
2023/07/19 15:00:48;;;;;;;10.45;5.47;;;;;;;;;;4973264;28;20504;-85
2023/07/19 15:03:13;;;;;;;11.73;4.57;;;;;;;;;;4973062;28;20054;-86
2023/07/19 15:05:39;;;;;;;7.55;4.85;;;;;;;;;;4972502;28;20035;-86
2023/07/19 15:08:05;;;;;;;8.23;5.10;;;;;;;;;;4973930;28;20035;-86
2023/07/19 15:10:30;;;;;;;8.88;4.63;;;;;;;;;;4977530;28;20277;-84
2023/07/19 15:12:56;;;;;;;7.85;4.82;;;;;;;;;;4977344;28;20058;-86
2023/07/19 15:15:21;;;;;;;7.50;4.53;;;;;;;;;;4977810;28;20038;-86
2023/07/19 15:17:47;;;;;;;10.88;4.65;;;;;;;;;;4977025;28;20038;-86
2023/07/19 15:20:12;;;;;;;11.90;4.95;;;;;;;;;;4974445;28;20394;-86
2023/07/19 15:22:38;;;;;;;8.73;4.47;;;;;;;;;;4971248;28;20038;-86
2023/07/19 15:25:06;;;;;;;7.15;4.50;;;;;;;;;;4980077;28;20105;-86
2023/07/19 15:27:33;;;;;;;6.15;4.30;;;;;;;;;;4980047;28;20070;-86
2023/07/19 15:29:59;;;;;;;7.00;4.28;;;;;;;;;;4982031;28;20034;-87
2023/07/19 15:32:25;;;;;;;8.70;4.43;;;;;;;;;;4982615;28;20061;-86
2023/07/19 15:34:50;;;;;;;6.88;4.30;;;;;;;;;;4982226;28;20034;-86
2023/07/19 15:37:15;;;;;;;8.02;4.10;;;;;;;;;;4976674;28;20074;-86
2023/07/19 15:39:41;;;;;;;7.10;3.80;;;;;;;;;;4968351;28;20039;-86
2023/07/19 15:42:07;;;;;;;5.75;3.70;;;;;;;;;;4979226;28;20039;-86
2023/07/19 15:44:32;;;;;;;5.38;3.45;;;;;;;;;;4978192;28;20047;-85
2023/07/19 15:46:58;;;;;;;6.65;3.75;;;;;;;;;;4976640;28;20505;-86
2023/07/19 15:49:25;;;;;;;5.53;3.60;;;;;;;;;;4975572;28;20443;-86
2023/07/19 15:51:51;;;;;;;6.57;3.58;;;;;;;;;;4973141;28;20042;-86
2023/07/19 15:54:16;;;;;;;6.97;3.70;;;;;;;;;;4972003;28;20035;-86